PWSweather.com
Personal Weather Stations
Station Observations
03410
LignerollesTF

LignerollesTF

Lat: 46.292342, Lon: 2.589435

Elevation: 1014

Station Type: Vantage Vue

http://meteo-lignerolles.fr

Latest ConditionsUpdated 7:20:06 PM GMT+01:01 Sunday, Jan 19, 2020
Currently Today's Max Today's Min Today's Average
Temperature 37.0°F2.8°C 39.6°F4.2°C 30.9°F-0.6°C 35.9°F2.2°C
Dew Point 32.1°F0.1°C 33.8°F1.0°C 29.9°F-1.2°C 32.1°F0.1°C
Winds 2.3 mph N3.7 kmh N 4.6 mph -7.4 kmh - - 2.1 mph 3.4 kmh
Wind Gusts -- 12.7 mph20.4 kmh - -
Humidity 82% 97% 76% 86%
Pressure 30.74 in1041.0 mb 30.74 in1041.0 mb 30.38 in1028.8 mb -
Hour Temp Dew Point Humidity Winds Wind Gusts Pressure Precip Precip Rate Daily Precip Total
07:20 PM 37.0°F2.8°C 32.1°F0.1°C 82% 2.3 mph N3.7 kmh N -- 30.74 in1041.0 mb - 0.00 in0.0 mm 0.00 in0.0 mm
07:10 PM 37.0°F2.8°C 32.1°F0.1°C 82% 2.3 mph NE3.7 kmh NE 4.6 mph7.4 kmh 30.74 in1041.0 mb - 0.00 in0.0 mm 0.00 in0.0 mm
07:00 PM 37.2°F2.9°C 31.9°F-0.1°C 81% 2.3 mph ESE3.7 kmh ESE 3.5 mph5.6 kmh 30.74 in1041.0 mb - 0.00 in0.0 mm 0.00 in0.0 mm
06:50 PM 37.2°F2.9°C 32.2°F0.1°C 82% 2.3 mph NNW3.7 kmh NNW 1.2 mph1.9 kmh 30.74 in1041.0 mb - 0.00 in0.0 mm 0.00 in0.0 mm
06:40 PM 37.2°F2.9°C 31.9°F-0.1°C 81% 2.3 mph E3.7 kmh E 4.6 mph7.4 kmh 30.73 in1040.6 mb - 0.00 in0.0 mm 0.00 in0.0 mm
06:30 PM 37.2°F2.9°C 32.2°F0.1°C 82% 2.3 mph NE3.7 kmh NE 1.2 mph1.9 kmh 30.73 in1040.6 mb - 0.00 in0.0 mm 0.00 in0.0 mm
06:20 PM 37.2°F2.9°C 32.2°F0.1°C 82% 1.2 mph NE1.9 kmh NE -- 30.73 in1040.6 mb - 0.00 in0.0 mm 0.00 in0.0 mm
06:10 PM 37.4°F3.0°C 32.1°F0.1°C 81% 3.5 mph NE5.6 kmh NE -- 30.73 in1040.6 mb - 0.00 in0.0 mm 0.00 in0.0 mm
06:00 PM 37.4°F3.0°C 31.5°F-0.3°C 79% 3.5 mph E5.6 kmh E 3.5 mph5.6 kmh 30.72 in1040.3 mb - 0.00 in0.0 mm 0.00 in0.0 mm
05:50 PM 37.6°F3.1°C 31.3°F-0.4°C 78% 3.5 mph NNW5.6 kmh NNW 4.6 mph7.4 kmh 30.71 in1040.0 mb - 0.00 in0.0 mm 0.00 in0.0 mm
05:40 PM 37.8°F3.2°C 31.5°F-0.3°C 78% 3.5 mph NE5.6 kmh NE 4.6 mph7.4 kmh 30.71 in1040.0 mb - 0.00 in0.0 mm 0.00 in0.0 mm
05:30 PM 37.6°F3.1°C 31.7°F-0.2°C 79% 3.5 mph NW5.6 kmh NW 8.1 mph13.0 kmh 30.70 in1039.6 mb - 0.00 in0.0 mm 0.00 in0.0 mm
05:20 PM 37.6°F3.1°C 32.3°F0.2°C 81% 2.3 mph W3.7 kmh W 1.2 mph1.9 kmh 30.70 in1039.6 mb - 0.00 in0.0 mm 0.00 in0.0 mm
05:10 PM 37.8°F3.2°C 32.1°F0.1°C 80% 3.5 mph NE5.6 kmh NE 2.3 mph3.7 kmh 30.70 in1039.6 mb - 0.00 in0.0 mm 0.00 in0.0 mm
05:00 PM 37.6°F3.1°C 32.0°F0.0°C 80% 3.5 mph ENE5.6 kmh ENE 4.6 mph7.4 kmh 30.69 in1039.3 mb - 0.00 in0.0 mm 0.00 in0.0 mm
04:50 PM 37.6°F3.1°C 32.0°F0.0°C 80% 2.3 mph NE3.7 kmh NE -- 30.69 in1039.3 mb - 0.00 in0.0 mm 0.00 in0.0 mm
04:40 PM 37.6°F3.1°C 32.0°F0.0°C 80% 3.5 mph NE5.6 kmh NE 1.2 mph1.9 kmh 30.68 in1038.9 mb - 0.00 in0.0 mm 0.00 in0.0 mm
04:30 PM 37.8°F3.2°C 31.8°F-0.1°C 79% 3.5 mph E5.6 kmh E 3.5 mph5.6 kmh 30.68 in1038.9 mb - 0.00 in0.0 mm 0.00 in0.0 mm
04:20 PM 37.9°F3.3°C 32.0°F0.0°C 79% 2.3 mph E3.7 kmh E 3.5 mph5.6 kmh 30.68 in1038.9 mb - 0.00 in0.0 mm 0.00 in0.0 mm
04:10 PM 38.1°F3.4°C 32.2°F0.1°C 79% 3.5 mph E5.6 kmh E 1.2 mph1.9 kmh 30.69 in1039.3 mb - 0.00 in0.0 mm 0.00 in0.0 mm
04:00 PM 38.1°F3.4°C 32.2°F0.1°C 79% 3.5 mph NE5.6 kmh NE 3.5 mph5.6 kmh 30.68 in1038.9 mb - 0.00 in0.0 mm 0.00 in0.0 mm
03:50 PM 38.1°F3.4°C 31.9°F-0.1°C 78% 3.5 mph ENE5.6 kmh ENE 3.5 mph5.6 kmh 30.68 in1038.9 mb - 0.00 in0.0 mm 0.00 in0.0 mm
03:40 PM 38.1°F3.4°C 32.2°F0.1°C 79% 3.5 mph NE5.6 kmh NE 1.2 mph1.9 kmh 30.68 in1038.9 mb - 0.00 in0.0 mm 0.00 in0.0 mm
03:30 PM 38.5°F3.6°C 32.5°F0.3°C 79% 3.5 mph E5.6 kmh E 1.2 mph1.9 kmh 30.68 in1038.9 mb - 0.00 in0.0 mm 0.00 in0.0 mm
03:20 PM 38.5°F3.6°C 32.2°F0.1°C 78% 3.5 mph NNE5.6 kmh NNE 4.6 mph7.4 kmh 30.67 in1038.6 mb - 0.00 in0.0 mm 0.00 in0.0 mm
03:10 PM 38.3°F3.5°C 31.7°F-0.2°C 77% 3.5 mph NE5.6 kmh NE 12.7 mph20.4 kmh 30.67 in1038.6 mb - 0.00 in0.0 mm 0.00 in0.0 mm
03:00 PM 38.5°F3.6°C 31.9°F-0.1°C 77% 3.5 mph ENE5.6 kmh ENE 4.6 mph7.4 kmh 30.66 in1038.3 mb - 0.00 in0.0 mm 0.00 in0.0 mm
02:50 PM 38.8°F3.8°C 32.2°F0.1°C 77% 3.5 mph N5.6 kmh N 4.6 mph7.4 kmh 30.66 in1038.3 mb - 0.00 in0.0 mm 0.00 in0.0 mm
02:40 PM 39.6°F4.2°C 32.6°F0.3°C 76% 3.5 mph ENE5.6 kmh ENE 4.6 mph7.4 kmh 30.66 in1038.3 mb - 0.00 in0.0 mm 0.00 in0.0 mm
02:30 PM 39.4°F4.1°C 32.8°F0.4°C 77% 4.6 mph ENE7.4 kmh ENE 4.6 mph7.4 kmh 30.66 in1038.3 mb - 0.00 in0.0 mm 0.00 in0.0 mm
02:20 PM 39.4°F4.1°C 32.8°F0.4°C 77% 3.5 mph N5.6 kmh N 6.9 mph11.1 kmh 30.66 in1038.3 mb - 0.00 in0.0 mm 0.00 in0.0 mm
02:10 PM 38.5°F3.6°C 32.8°F0.4°C 80% 2.3 mph NE3.7 kmh NE 2.3 mph3.7 kmh 30.66 in1038.3 mb - 0.00 in0.0 mm 0.00 in0.0 mm
02:00 PM 38.5°F3.6°C 32.5°F0.3°C 79% 3.5 mph N5.6 kmh N 3.5 mph5.6 kmh 30.66 in1038.3 mb - 0.00 in0.0 mm 0.00 in0.0 mm
01:50 PM 38.8°F3.8°C 33.2°F0.7°C 80% 3.5 mph NE5.6 kmh NE 1.2 mph1.9 kmh 30.66 in1038.3 mb - 0.00 in0.0 mm 0.00 in0.0 mm
01:40 PM 38.5°F3.6°C 33.2°F0.7°C 81% 3.5 mph NE5.6 kmh NE 3.5 mph5.6 kmh 30.67 in1038.6 mb - 0.00 in0.0 mm 0.00 in0.0 mm
01:30 PM 38.5°F3.6°C 33.2°F0.7°C 81% 3.5 mph NW5.6 kmh NW 4.6 mph7.4 kmh 30.67 in1038.6 mb - 0.00 in0.0 mm 0.00 in0.0 mm
01:20 PM 38.5°F3.6°C 33.8°F1.0°C 83% 1.2 mph NE1.9 kmh NE 2.3 mph3.7 kmh 30.67 in1038.6 mb - 0.00 in0.0 mm 0.00 in0.0 mm
01:10 PM 38.3°F3.5°C 33.6°F0.9°C 83% 2.3 mph NE3.7 kmh NE 4.6 mph7.4 kmh 30.67 in1038.6 mb - 0.00 in0.0 mm 0.00 in0.0 mm
01:00 PM 38.5°F3.6°C 33.8°F1.0°C 83% 3.5 mph NW5.6 kmh NW 4.6 mph7.4 kmh 30.67 in1038.6 mb - 0.00 in0.0 mm 0.00 in0.0 mm
12:50 PM 37.8°F3.2°C 33.7°F0.9°C 85% 2.3 mph NE3.7 kmh NE 1.2 mph1.9 kmh 30.68 in1038.9 mb - 0.00 in0.0 mm 0.00 in0.0 mm
12:40 PM 37.0°F2.8°C 33.2°F0.7°C 86% 2.3 mph NNE3.7 kmh NNE -- 30.68 in1038.9 mb - 0.00 in0.0 mm 0.00 in0.0 mm
12:30 PM 36.9°F2.7°C 33.1°F0.6°C 86% 2.3 mph NNW3.7 kmh NNW 1.2 mph1.9 kmh 30.68 in1038.9 mb - 0.00 in0.0 mm 0.00 in0.0 mm
12:20 PM 35.8°F2.1°C 32.3°F0.2°C 87% 2.3 mph NE3.7 kmh NE 3.5 mph5.6 kmh 30.68 in1038.9 mb - 0.00 in0.0 mm 0.00 in0.0 mm
12:10 PM 35.8°F2.1°C 32.6°F0.3°C 88% 2.3 mph N3.7 kmh N 3.5 mph5.6 kmh 30.67 in1038.6 mb - 0.00 in0.0 mm 0.00 in0.0 mm
12:00 PM 35.8°F2.1°C 33.1°F0.6°C 90% 1.2 mph N1.9 kmh N 2.3 mph3.7 kmh 30.68 in1038.9 mb - 0.00 in0.0 mm 0.00 in0.0 mm
11:50 AM 35.1°F1.7°C 32.4°F0.2°C 90% 1.2 mph NE1.9 kmh NE -- 30.68 in1038.9 mb - 0.00 in0.0 mm 0.00 in0.0 mm
11:40 AM 34.7°F1.5°C 32.3°F0.2°C 91% 2.3 mph NE3.7 kmh NE -- 30.68 in1038.9 mb - 0.00 in0.0 mm 0.00 in0.0 mm
11:30 AM 34.3°F1.3°C 32.3°F0.2°C 92% 2.3 mph NW3.7 kmh NW 6.9 mph11.1 kmh 30.68 in1038.9 mb - 0.00 in0.0 mm 0.00 in0.0 mm
11:20 AM 34.0°F1.1°C 32.4°F0.2°C 94% 1.2 mph ENE1.9 kmh ENE 2.3 mph3.7 kmh 30.68 in1038.9 mb - 0.00 in0.0 mm 0.00 in0.0 mm
11:10 AM 33.6°F0.9°C 32.3°F0.2°C 95% 1.2 mph NE1.9 kmh NE 2.3 mph3.7 kmh 30.67 in1038.6 mb - 0.00 in0.0 mm 0.00 in0.0 mm
11:00 AM 33.4°F0.8°C 32.2°F0.1°C 95% 1.2 mph NNW1.9 kmh NNW 1.2 mph1.9 kmh 30.66 in1038.3 mb - 0.00 in0.0 mm 0.00 in0.0 mm
10:50 AM 33.3°F0.7°C 32.0°F0.0°C 95% 1.2 mph NE1.9 kmh NE 2.3 mph3.7 kmh 30.66 in1038.3 mb - 0.00 in0.0 mm 0.00 in0.0 mm
10:40 AM 33.1°F0.6°C 31.8°F-0.1°C 95% 1.2 mph NNW1.9 kmh NNW 1.2 mph1.9 kmh 30.65 in1037.9 mb - 0.00 in0.0 mm 0.00 in0.0 mm
10:30 AM 33.3°F0.7°C 32.2°F0.1°C 96% 1.2 mph WNW1.9 kmh WNW 1.2 mph1.9 kmh 30.64 in1037.6 mb - 0.00 in0.0 mm 0.00 in0.0 mm
10:20 AM 33.1°F0.6°C 32.1°F0.1°C 96% Calm Calm -- 30.63 in1037.3 mb - 0.00 in0.0 mm 0.00 in0.0 mm
10:10 AM 32.9°F0.5°C 31.9°F-0.1°C 96% Calm Calm -- 30.63 in1037.3 mb - 0.00 in0.0 mm 0.00 in0.0 mm
10:00 AM 32.7°F0.4°C 31.7°F-0.2°C 96% 1.2 mph E1.9 kmh E -- 30.62 in1036.9 mb - 0.00 in0.0 mm 0.00 in0.0 mm
09:50 AM 32.5°F0.3°C 31.5°F-0.3°C 96% 1.2 mph NW1.9 kmh NW 1.2 mph1.9 kmh 30.62 in1036.9 mb - 0.00 in0.0 mm 0.00 in0.0 mm
09:40 AM 32.5°F0.3°C 31.5°F-0.3°C 96% Calm Calm -- 30.62 in1036.9 mb - 0.00 in0.0 mm 0.00 in0.0 mm
09:30 AM 32.5°F0.3°C 31.5°F-0.3°C 96% 1.2 mph N1.9 kmh N -- 30.61 in1036.6 mb - 0.00 in0.0 mm 0.00 in0.0 mm
09:20 AM 32.4°F0.2°C 31.3°F-0.4°C 96% Calm Calm 3.5 mph5.6 kmh 30.61 in1036.6 mb - 0.00 in0.0 mm 0.00 in0.0 mm
09:10 AM 32.4°F0.2°C 31.3°F-0.4°C 96% 1.2 mph NNE1.9 kmh NNE 1.2 mph1.9 kmh 30.61 in1036.6 mb - 0.00 in0.0 mm 0.00 in0.0 mm
09:00 AM 32.2°F0.1°C 31.4°F-0.3°C 97% 1.2 mph N1.9 kmh N -- 30.60 in1036.2 mb - 0.00 in0.0 mm 0.00 in0.0 mm
08:50 AM 32.0°F0.0°C 31.2°F-0.4°C 97% 1.2 mph NW1.9 kmh NW -- 30.60 in1036.2 mb - 0.00 in0.0 mm 0.00 in0.0 mm
08:40 AM 31.6°F-0.2°C 30.6°F-0.8°C 96% Calm Calm -- 30.59 in1035.9 mb - 0.00 in0.0 mm 0.00 in0.0 mm
08:30 AM 31.8°F-0.1°C 30.8°F-0.7°C 96% 1.2 mph NNE1.9 kmh NNE -- 30.58 in1035.6 mb - 0.00 in0.0 mm 0.00 in0.0 mm
08:20 AM 31.8°F-0.1°C 31.1°F-0.5°C 97% Calm Calm 3.5 mph5.6 kmh 30.57 in1035.2 mb - 0.00 in0.0 mm 0.00 in0.0 mm
08:10 AM 31.5°F-0.3°C 30.7°F-0.7°C 97% Calm Calm 1.2 mph1.9 kmh 30.57 in1035.2 mb - 0.00 in0.0 mm 0.00 in0.0 mm
08:00 AM 31.3°F-0.4°C 30.3°F-0.9°C 96% Calm Calm -- 30.57 in1035.2 mb - 0.00 in0.0 mm 0.00 in0.0 mm
07:50 AM 31.1°F-0.5°C 30.1°F-1.1°C 96% Calm Calm -- 30.57 in1035.2 mb - 0.00 in0.0 mm 0.00 in0.0 mm
07:40 AM 30.9°F-0.6°C 29.9°F-1.2°C 96% Calm Calm -- 30.57 in1035.2 mb - 0.00 in0.0 mm 0.00 in0.0 mm
07:30 AM 31.1°F-0.5°C 30.1°F-1.1°C 96% Calm Calm -- 30.56 in1034.9 mb - 0.00 in0.0 mm 0.00 in0.0 mm
07:20 AM 36.3°F2.4°C 33.1°F0.6°C 88% Calm Calm -- 30.38 in1028.8 mb - 0.00 in0.0 mm 0.00 in0.0 mm